Time;durP1;ratioP1;P1;durP2;ratioP2;P2;SDS_P1;SDS_P2;PMS_P1;PMS_P2;Temp;Humidity;BMP_temperature;BMP_pressure;BME280_temperature;BME280_humidity;BME280_pressure;Samples;Min_cycle;Max_cycle;Signal;HPM_P1;HPM_P2
2022/12/08 00:02:04;;;;;;;;;;;3.20;91.10;;;;;;6063787;23;20189;-78
2022/12/08 00:09:20;;;;;;;;;;;3.10;91.00;;;;;;6021845;23;19939;-79
2022/12/08 00:10:02;;;;;;;;;;;3.20;91.40;;;;;;6028980;23;19915;-79
2022/12/08 00:12:28;;;;;;;;;;;3.10;91.00;;;;;;6051174;23;19932;-78
2022/12/08 00:14:53;;;;;;;;;;;3.10;91.00;;;;;;6045236;23;19917;-78
2022/12/08 00:17:19;;;;;;;;;;;3.10;91.00;;;;;;6069721;23;19904;-77
2022/12/08 00:19:44;;;;;;;;;;;3.10;91.00;;;;;;6046609;23;19921;-77
2022/12/08 00:22:10;;;;;;;;;;;3.10;91.00;;;;;;6067786;23;19965;-77
2022/12/08 00:24:39;;;;;;;;;;;3.10;91.10;;;;;;6042183;23;19960;-77
2022/12/08 00:27:05;;;;;;;;;;;3.10;91.00;;;;;;6047196;23;19940;-77
2022/12/08 00:29:30;;;;;;;;;;;3.10;91.10;;;;;;6062925;23;19908;-78
2022/12/08 00:31:56;;;;;;;;;;;3.10;91.10;;;;;;6032491;23;20359;-78
2022/12/08 00:34:21;;;;;;;;;;;3.10;91.00;;;;;;6045587;23;19919;-78
2022/12/08 00:36:47;;;;;;;;;;;3.10;91.10;;;;;;6042088;23;19950;-79
2022/12/08 00:39:12;;;;;;;;;;;3.20;91.10;;;;;;6038315;23;19912;-79
2022/12/08 00:44:22;;;;;;;;;;;3.20;91.10;;;;;;6037998;23;19918;-78
2022/12/08 00:46:47;;;;;;;;;;;3.20;91.10;;;;;;6045105;23;19952;-79
2022/12/08 00:49:13;;;;;;;;;;;3.20;91.10;;;;;;6018400;23;19908;-78
2022/12/08 00:51:39;;;;;;;;;;;3.20;91.10;;;;;;6035812;23;19916;-79
2022/12/08 00:54:04;;;;;;;;;;;3.20;91.10;;;;;;6037438;23;20342;-79
2022/12/08 00:56:30;;;;;;;;;;;3.20;91.10;;;;;;6045365;23;19932;-78
2022/12/08 00:58:55;;;;;;;;;;;3.10;91.00;;;;;;6072396;23;19908;-78
2022/12/08 01:01:21;;;;;;;;;;;3.20;91.10;;;;;;6044909;23;19915;-78
2022/12/08 05:47:05;;;;;;;;;;;3.20;91.10;;;;;;5989236;23;19923;-76
2022/12/08 05:49:31;;;;;;;;;;;3.20;91.10;;;;;;6007974;23;19922;-77
2022/12/08 05:51:57;;;;;;;;;;;3.20;91.10;;;;;;5996297;23;19921;-77
2022/12/08 05:54:22;;;;;;;;;;;3.20;91.10;;;;;;6007653;23;19987;-77
2022/12/08 05:56:48;;;;;;;;;;;3.20;91.10;;;;;;5976402;23;19913;-76
2022/12/08 05:59:15;;;;;;;;;;;3.20;91.10;;;;;;5996354;23;19952;-76
2022/12/08 06:01:41;;;;;;;;;;;3.20;91.10;;;;;;5994173;23;20224;-77
2022/12/08 06:04:07;;;;;;;;;;;3.20;91.10;;;;;;6015678;23;19897;-77
2022/12/08 06:06:33;;;;;;;;;;;3.20;91.10;;;;;;5986613;23;19909;-76
2022/12/08 06:09:00;;;;;;;;;;;3.20;91.20;;;;;;5971219;23;19924;-76
2022/12/08 06:11:26;;;;;;;;;;;3.20;91.10;;;;;;5998229;23;19916;-77
2022/12/08 06:13:52;;;;;;;;;;;3.20;91.10;;;;;;6041443;23;20134;-76
2022/12/08 06:16:18;;;;;;;;;;;3.20;91.10;;;;;;6038700;23;19905;-77
2022/12/08 06:18:46;;;;;;;;;;;3.20;91.20;;;;;;5992699;23;20091;-77
2022/12/08 06:21:12;;;;;;;;;;;3.20;91.20;;;;;;6016607;23;19918;-77
2022/12/08 06:23:38;;;;;;;;;;;3.20;91.20;;;;;;5998074;23;19909;-78
2022/12/08 06:26:04;;;;;;;;;;;3.20;91.20;;;;;;6000145;23;19916;-77
2022/12/08 06:28:30;;;;;;;;;;;3.20;91.20;;;;;;6009665;23;19920;-78
2022/12/08 06:30:56;;;;;;;;;;;3.10;91.10;;;;;;6006901;23;19932;-78
2022/12/08 06:33:22;;;;;;;;;;;3.10;91.10;;;;;;6044605;23;19912;-76
2022/12/08 06:35:47;;;;;;;;;;;3.10;91.10;;;;;;5991549;23;20445;-78
2022/12/08 06:38:13;;;;;;;;;;;3.10;91.20;;;;;;6013328;23;20074;-78
2022/12/08 06:40:39;;;;;;;;;;;3.10;91.20;;;;;;6010483;23;19901;-76
2022/12/08 06:43:04;;;;;;;;;;;3.20;91.20;;;;;;5999407;23;19902;-77
2022/12/08 06:45:30;;;;;;;;;;;3.10;91.20;;;;;;6041082;23;19925;-76
2022/12/08 06:47:56;;;;;;;;;;;3.10;91.20;;;;;;6048173;23;19900;-77
2022/12/08 06:50:21;;;;;;;;;;;3.10;91.20;;;;;;6075766;23;19916;-78
2022/12/08 06:52:47;;;;;;;;;;;3.10;91.20;;;;;;6044277;23;19900;-77
2022/12/08 06:55:12;;;;;;;;;;;3.10;91.20;;;;;;6024423;23;19909;-78
2022/12/08 06:57:38;;;;;;;;;;;3.10;91.20;;;;;;6035447;23;20264;-77
2022/12/08 07:00:04;;;;;;;;;;;3.10;91.20;;;;;;6025803;23;19923;-77
2022/12/08 07:02:30;;;;;;;;;;;3.10;91.20;;;;;;6047918;23;19924;-77
2022/12/08 07:04:56;;;;;;;;;;;3.00;91.50;;;;;;6046964;23;19927;-76
2022/12/08 07:07:22;;;;;;;;;;;3.10;91.20;;;;;;6034329;23;19896;-76
2022/12/08 07:09:47;;;;;;;;;;;3.00;91.20;;;;;;6070520;23;19897;-77
2022/12/08 07:12:13;;;;;;;;;;;3.10;91.20;;;;;;6024455;23;19928;-78
2022/12/08 07:14:39;;;;;;;;;;;3.10;91.20;;;;;;6071658;23;19919;-77
2022/12/08 07:17:04;;;;;;;;;;;3.10;91.20;;;;;;6061696;23;19967;-76
2022/12/08 07:19:30;;;;;;;;;;;3.10;91.20;;;;;;6043379;23;19908;-77
2022/12/08 07:21:56;;;;;;;;;;;3.10;91.20;;;;;;6072441;23;19927;-76
2022/12/08 07:24:21;;;;;;;;;;;3.10;91.20;;;;;;6041649;23;19977;-77
2022/12/08 07:26:47;;;;;;;;;;;3.10;91.20;;;;;;6038724;23;19931;-77
2022/12/08 07:29:13;;;;;;;;;;;3.10;91.20;;;;;;6043221;23;19938;-76
2022/12/08 07:31:39;;;;;;;;;;;3.10;91.20;;;;;;6048728;23;19912;-76
2022/12/08 07:34:04;;;;;;;;;;;3.10;91.20;;;;;;6029020;23;19991;-76
2022/12/08 07:36:31;;;;;;;;;;;3.10;91.20;;;;;;6047333;23;20004;-78
2022/12/08 07:38:57;;;;;;;;;;;3.20;91.20;;;;;;6041644;23;19916;-76
2022/12/08 07:41:23;;;;;;;;;;;3.10;91.20;;;;;;6038253;23;19916;-77
2022/12/08 07:43:49;;;;;;;;;;;3.10;91.20;;;;;;6004443;23;19909;-78
2022/12/08 07:46:16;;;;;;;;;;;3.20;91.20;;;;;;6005880;23;19912;-77
2022/12/08 07:48:41;;;;;;;;;;;3.20;91.20;;;;;;6043982;23;19905;-77
2022/12/08 07:51:07;;;;;;;;;;;3.20;91.20;;;;;;6039863;23;19920;-77
2022/12/08 07:53:33;;;;;;;;;;;3.20;91.20;;;;;;6066614;23;19917;-77
2022/12/08 07:55:58;;;;;;;;;;;3.20;91.20;;;;;;6053358;23;19916;-75
2022/12/08 07:58:24;;;;;;;;;;;3.20;91.20;;;;;;6031208;23;19935;-71
2022/12/08 08:00:53;;;;;;;;;;;3.30;91.20;;;;;;6046116;23;20402;-76
2022/12/08 08:03:20;;;;;;;;;;;3.30;91.20;;;;;;6066600;23;19923;-77
2022/12/08 08:05:48;;;;;;;;;;;3.30;91.20;;;;;;6037258;23;19987;-77
2022/12/08 08:08:13;;;;;;;;;;;3.30;91.20;;;;;;6041210;23;19956;-78
2022/12/08 08:10:39;;;;;;;;;;;3.30;91.20;;;;;;6037375;23;19956;-79
2022/12/08 08:13:05;;;;;;;;;;;3.30;91.20;;;;;;6038822;23;20627;-78
2022/12/08 08:15:30;;;;;;;;;;;3.40;91.20;;;;;;6037493;23;19913;-78
2022/12/08 08:17:56;;;;;;;;;;;3.40;91.20;;;;;;6015717;23;19908;-77
2022/12/08 08:20:21;;;;;;;;;;;3.40;91.20;;;;;;6039018;23;19915;-77
2022/12/08 08:22:47;;;;;;;;;;;3.40;91.20;;;;;;6018995;23;20267;-78
2022/12/08 08:25:13;;;;;;;;;;;3.40;91.20;;;;;;6064299;23;19909;-79
2022/12/08 08:27:39;;;;;;;;;;;3.40;91.20;;;;;;6009986;23;19919;-77
2022/12/08 08:30:08;;;;;;;;;;;3.40;91.20;;;;;;6058273;23;19936;-77
2022/12/08 08:32:34;;;;;;;;;;;3.50;91.20;;;;;;6066868;23;19916;-77
2022/12/08 08:35:00;;;;;;;;;;;3.50;91.20;;;;;;6045222;23;19911;-76
2022/12/08 08:37:26;;;;;;;;;;;3.50;91.20;;;;;;6073292;23;19930;-78
2022/12/08 08:39:52;;;;;;;;;;;3.50;91.20;;;;;;6042999;23;19916;-77
2022/12/08 08:42:17;;;;;;;;;;;3.60;91.20;;;;;;6070034;23;19907;-76
2022/12/08 08:44:43;;;;;;;;;;;3.60;91.20;;;;;;6025438;23;19915;-77
2022/12/08 08:47:09;;;;;;;;;;;3.60;91.20;;;;;;6045198;23;19919;-76
2022/12/08 08:49:34;;;;;;;;;;;3.60;91.20;;;;;;6028739;23;19912;-77
2022/12/08 08:52:00;;;;;;;;;;;3.60;91.20;;;;;;6052200;23;19912;-76
2022/12/08 08:54:27;;;;;;;;;;;3.70;91.20;;;;;;6070916;23;19916;-77
2022/12/08 08:56:53;;;;;;;;;;;3.70;91.20;;;;;;6073767;23;20009;-77
2022/12/08 08:59:18;;;;;;;;;;;3.70;91.20;;;;;;6047880;23;20127;-77
2022/12/08 09:01:44;;;;;;;;;;;3.70;91.10;;;;;;6050761;23;20392;-78
2022/12/08 09:04:09;;;;;;;;;;;3.70;91.10;;;;;;6072392;23;19934;-75
2022/12/08 09:06:35;;;;;;;;;;;3.80;91.10;;;;;;6071992;23;19909;-76
2022/12/08 09:09:01;;;;;;;;;;;3.80;91.10;;;;;;6076678;23;20621;-77
2022/12/08 09:11:26;;;;;;;;;;;3.80;91.10;;;;;;6041431;23;19917;-77
2022/12/08 09:13:52;;;;;;;;;;;3.90;91.20;;;;;;6079146;23;19920;-76
2022/12/08 09:16:18;;;;;;;;;;;3.90;91.20;;;;;;6076351;23;19900;-78
2022/12/08 09:18:44;;;;;;;;;;;3.90;91.20;;;;;;6049256;23;19939;-78
2022/12/08 09:21:15;;;;;;;;;;;4.00;91.20;;;;;;6074219;23;19953;-75
2022/12/08 09:23:41;;;;;;;;;;;4.00;91.20;;;;;;6051812;23;19912;-77
2022/12/08 09:26:07;;;;;;;;;;;4.00;91.10;;;;;;6025309;23;19904;-75
2022/12/08 09:28:32;;;;;;;;;;;4.10;91.10;;;;;;6030477;23;19920;-77
2022/12/08 09:30:58;;;;;;;;;;;4.10;91.50;;;;;;6050937;23;19916;-77
2022/12/08 09:33:23;;;;;;;;;;;4.10;91.10;;;;;;6047420;23;19999;-77
2022/12/08 09:35:49;;;;;;;;;;;4.20;91.10;;;;;;6023560;23;19952;-77
2022/12/08 09:38:15;;;;;;;;;;;4.20;91.10;;;;;;6073591;23;19912;-78
2022/12/08 09:40:50;;;;;;;;;;;4.20;91.10;;;;;;6073543;23;20352;-76
2022/12/08 09:43:35;;;;;;;;;;;4.30;91.10;;;;;;6074718;23;19908;-77
2022/12/08 09:46:02;;;;;;;;;;;4.30;91.10;;;;;;6045089;23;19932;-76
2022/12/08 09:48:31;;;;;;;;;;;4.30;91.10;;;;;;6045483;23;19960;-78
2022/12/08 09:50:57;;;;;;;;;;;4.30;91.00;;;;;;6037369;23;19936;-79
2022/12/08 09:53:29;;;;;;;;;;;4.30;91.00;;;;;;6066923;23;20287;-77
2022/12/08 09:55:55;;;;;;;;;;;4.30;91.00;;;;;;6044764;23;19913;-76
2022/12/08 09:58:21;;;;;;;;;;;4.30;91.00;;;;;;6034889;23;19897;-75
2022/12/08 10:00:47;;;;;;;;;;;4.40;91.00;;;;;;6036591;23;19940;-76
2022/12/08 10:03:15;;;;;;;;;;;4.40;91.00;;;;;;6042628;23;19951;-75
2022/12/08 10:05:46;;;;;;;;;;;4.40;91.00;;;;;;6041251;23;19912;-76
2022/12/08 10:08:18;;;;;;;;;;;4.40;91.00;;;;;;6031359;23;21002;-76
2022/12/08 10:10:53;;;;;;;;;;;4.40;91.00;;;;;;6043072;23;19912;-76
2022/12/08 10:13:18;;;;;;;;;;;4.50;91.00;;;;;;6033967;23;19921;-76
2022/12/08 10:15:58;;;;;;;;;;;4.50;91.00;;;;;;5547360;23;20452;-76
2022/12/08 10:18:26;;;;;;;;;;;4.50;91.00;;;;;;5056185;28;19912;-76
2022/12/08 10:20:51;;;;;;;;;;;4.50;91.00;;;;;;5058993;28;19921;-77
2022/12/08 10:23:25;;;;;;;;;;;4.50;91.00;;;;;;5061279;28;19905;-76
2022/12/08 10:25:55;;;;;;;;;;;4.60;91.00;;;;;;5042810;28;20291;-77
2022/12/08 10:28:33;;;;;;;;;;;4.70;91.10;;;;;;5054070;28;19982;-77
2022/12/08 10:30:59;;;;;;;;;;;4.80;91.30;;;;;;5052076;28;19917;-78
2022/12/08 10:33:24;;;;;;;;;;;4.90;91.10;;;;;;5020885;28;20277;-78
2022/12/08 10:35:53;;;;;;;;;;;5.00;91.10;;;;;;5035996;28;19933;-77
2022/12/08 10:38:20;;;;;;;;;;;5.10;91.10;;;;;;5028422;28;19901;-77
2022/12/08 10:40:46;;;;;;;;;;;5.20;91.00;;;;;;5058234;28;19925;-77
2022/12/08 10:43:16;;;;;;;;;;;5.30;91.00;;;;;;5059400;28;20280;-77
2022/12/08 10:45:42;;;;;;;;;;;5.40;91.00;;;;;;5041053;28;19913;-77
2022/12/08 10:48:14;;;;;;;;;;;5.40;90.90;;;;;;5050109;28;19913;-78
2022/12/08 10:50:43;;;;;;;;;;;5.50;90.90;;;;;;5048395;28;19972;-77
2022/12/08 10:53:11;;;;;;;;;;;5.60;90.90;;;;;;5039159;28;19925;-76
2022/12/08 10:55:44;;;;;;;;;;;5.60;90.80;;;;;;5034784;28;19936;-76
2022/12/08 10:58:27;;;;;;;;;;;5.70;90.80;;;;;;5035337;28;19916;-78
2022/12/08 11:00:54;;;;;;;;;;;5.70;90.80;;;;;;5042455;28;19996;-78
2022/12/08 11:03:25;;;;;;;;;;;5.80;90.80;;;;;;5059572;28;19917;-78
2022/12/08 11:05:52;;;;;;;;;;;5.80;90.70;;;;;;5061406;28;19925;-79
2022/12/08 11:08:18;;;;;;;;;;;5.80;90.70;;;;;;5045309;28;19920;-78
2022/12/08 11:10:43;;;;;;;;;;;5.80;90.70;;;;;;5059534;28;20064;-78
2022/12/08 11:13:15;;;;;;;;;;;5.80;90.70;;;;;;5013541;28;19988;-78
2022/12/08 11:15:40;;;;;;;;;;;5.80;90.70;;;;;;5035137;28;19967;-79
2022/12/08 11:18:07;;;;;;;;;;;5.80;90.70;;;;;;5025307;28;19917;-78
2022/12/08 11:20:40;;;;;;;;;;;5.80;90.70;;;;;;5065011;28;19916;-78
2022/12/08 11:23:16;;;;;;;;;;;5.90;90.70;;;;;;5059021;28;19916;-78
2022/12/08 11:25:41;;;;;;;;;;;5.90;90.70;;;;;;5054186;28;19916;-77
2022/12/08 11:28:07;;;;;;;;;;;5.90;90.70;;;;;;5058786;28;19921;-78
2022/12/08 11:30:40;;;;;;;;;;;5.90;90.70;;;;;;5057417;28;19925;-79
2022/12/08 11:33:05;;;;;;;;;;;5.90;90.60;;;;;;5044094;28;19963;-79
2022/12/08 11:35:38;;;;;;;;;;;5.90;90.60;;;;;;5061355;28;19929;-78
2022/12/08 11:38:04;;;;;;;;;;;6.00;90.70;;;;;;5040255;28;19916;-78
2022/12/08 11:40:34;;;;;;;;;;;6.00;90.60;;;;;;5045808;28;19925;-79
2022/12/08 11:43:08;;;;;;;;;;;6.00;90.60;;;;;;5059136;28;19916;-78
2022/12/08 11:45:34;;;;;;;;;;;6.00;90.60;;;;;;5059001;28;19929;-79
2022/12/08 11:48:19;;;;;;;;;;;6.10;90.60;;;;;;5045537;28;19921;-79
2022/12/08 11:50:49;;;;;;;;;;;6.10;90.60;;;;;;5045283;28;20529;-79
2022/12/08 11:53:21;;;;;;;;;;;6.10;90.60;;;;;;5032487;28;19920;-79
2022/12/08 11:55:52;;;;;;;;;;;6.20;90.60;;;;;;5041862;28;19951;-78
2022/12/08 11:58:21;;;;;;;;;;;6.20;90.50;;;;;;5056651;28;19944;-78
2022/12/08 12:00:47;;;;;;;;;;;6.30;90.50;;;;;;5059233;28;20017;-78
2022/12/08 12:03:51;;;;;;;;;;;6.30;90.50;;;;;;5042110;28;19913;-79
2022/12/08 12:06:17;;;;;;;;;;;6.30;90.90;;;;;;5007677;28;19948;-78
2022/12/08 12:09:00;;;;;;;;;;;6.40;90.50;;;;;;5004855;28;20351;-78
2022/12/08 12:14:35;;;;;;;;;;;6.40;90.40;;;;;;5039664;28;19947;-72
2022/12/08 12:17:09;;;;;;;;;;;6.40;90.40;;;;;;5043721;28;19932;-78
2022/12/08 12:19:36;;;;;;;;;;;6.40;90.40;;;;;;5017302;28;19913;-80
2022/12/08 12:22:07;;;;;;;;;;;6.40;90.40;;;;;;5014967;28;19920;-79
2022/12/08 12:24:33;;;;;;;;;;;6.40;90.40;;;;;;5013602;28;19920;-79
2022/12/08 12:27:04;;;;;;;;;;;6.40;90.40;;;;;;5030748;28;19924;-78
2022/12/08 12:29:33;;;;;;;;;;;6.40;90.40;;;;;;5037841;28;19925;-78
2022/12/08 12:32:05;;;;;;;;;;;6.40;90.40;;;;;;5037576;28;20007;-78
2022/12/08 12:34:35;;;;;;;;;;;6.40;90.40;;;;;;5039421;28;19927;-78
2022/12/08 12:37:09;;;;;;;;;;;6.40;90.40;;;;;;5028190;28;19986;-79
2022/12/08 12:39:45;;;;;;;;;;;6.40;90.40;;;;;;5033252;28;19944;-79
2022/12/08 12:42:11;;;;;;;;;;;6.40;90.40;;;;;;5043953;28;19927;-73
2022/12/08 12:44:37;;;;;;;;;;;6.40;90.40;;;;;;5041434;28;19917;-79
2022/12/08 12:47:04;;;;;;;;;;;6.40;90.40;;;;;;5024185;28;19944;-78
2022/12/08 12:49:48;;;;;;;;;;;6.40;90.40;;;;;;5030241;28;19924;-79
2022/12/08 12:52:22;;;;;;;;;;;6.40;90.40;;;;;;5046868;28;20007;-79
2022/12/08 12:54:48;;;;;;;;;;;6.40;90.40;;;;;;5045644;28;19921;-79
2022/12/08 12:57:20;;;;;;;;;;;6.40;90.40;;;;;;5037787;28;19921;-78
2022/12/08 12:59:52;;;;;;;;;;;6.30;90.30;;;;;;5056795;28;19927;-78
2022/12/08 13:02:19;;;;;;;;;;;6.30;90.30;;;;;;5046639;28;19940;-79
2022/12/08 13:05:05;;;;;;;;;;;6.30;90.30;;;;;;5039419;28;19936;-79
2022/12/08 13:07:31;;;;;;;;;;;6.30;90.30;;;;;;5025495;28;19961;-78
2022/12/08 13:10:20;;;;;;;;;;;6.30;90.30;;;;;;5030622;28;20375;-78
2022/12/08 13:12:59;;;;;;;;;;;6.20;90.30;;;;;;5020102;28;20004;-77
2022/12/08 13:15:25;;;;;;;;;;;6.30;90.40;;;;;;5045334;28;19995;-76
2022/12/08 13:17:50;;;;;;;;;;;6.30;90.40;;;;;;5042551;28;19929;-76
2022/12/08 13:20:19;;;;;;;;;;;6.30;90.40;;;;;;5043934;28;19923;-75
2022/12/08 13:22:47;;;;;;;;;;;6.20;90.30;;;;;;5029417;28;19925;-76
2022/12/08 13:25:31;;;;;;;;;;;6.20;90.30;;;;;;5048989;28;19975;-76
2022/12/08 13:27:56;;;;;;;;;;;6.20;90.30;;;;;;5035660;28;19932;-77
2022/12/08 13:30:41;;;;;;;;;;;6.20;90.30;;;;;;5021112;28;20349;-77
2022/12/08 13:33:09;;;;;;;;;;;6.20;90.70;;;;;;5052846;28;19925;-77
2022/12/08 13:35:35;;;;;;;;;;;6.20;90.30;;;;;;5039939;28;19928;-76
2022/12/08 13:38:01;;;;;;;;;;;6.30;90.30;;;;;;5054408;28;19925;-78
2022/12/08 13:40:27;;;;;;;;;;;6.30;90.30;;;;;;5038072;28;21515;-77
2022/12/08 13:42:55;;;;;;;;;;;6.30;90.30;;;;;;5025007;28;20006;-78
2022/12/08 13:45:22;;;;;;;;;;;6.30;90.60;;;;;;5055235;28;20012;-78
2022/12/08 13:47:50;;;;;;;;;;;6.30;90.30;;;;;;5050604;28;19956;-78
2022/12/08 13:50:20;;;;;;;;;;;6.30;90.30;;;;;;5036726;28;20147;-76
2022/12/08 13:52:59;;;;;;;;;;;6.30;90.30;;;;;;5041191;28;19921;-77
2022/12/08 13:55:29;;;;;;;;;;;6.30;90.30;;;;;;5045714;28;19925;-77
2022/12/08 13:58:04;;;;;;;;;;;6.20;90.20;;;;;;5027833;28;19923;-77
2022/12/08 14:00:30;;;;;;;;;;;6.30;90.30;;;;;;5034336;28;19932;-79
2022/12/08 14:02:57;;;;;;;;;;;6.30;90.30;;;;;;5047454;28;19920;-78
2022/12/08 14:05:24;;;;;;;;;;;6.20;90.30;;;;;;5038839;28;19948;-78
2022/12/08 14:07:58;;;;;;;;;;;6.20;90.30;;;;;;5024491;28;19956;-77
2022/12/08 14:10:28;;;;;;;;;;;6.20;90.30;;;;;;5028788;28;19924;-78
2022/12/08 14:12:58;;;;;;;;;;;6.20;90.30;;;;;;5024229;28;19932;-79
2022/12/08 14:15:23;;;;;;;;;;;6.20;90.30;;;;;;5029631;28;19929;-79
2022/12/08 14:17:50;;;;;;;;;;;6.20;90.30;;;;;;5042379;28;20013;-79
2022/12/08 14:20:28;;;;;;;;;;;6.20;90.60;;;;;;5046899;28;19917;-77
2022/12/08 14:22:54;;;;;;;;;;;6.20;90.30;;;;;;5025642;28;19917;-77
2022/12/08 14:25:20;;;;;;;;;;;6.20;90.30;;;;;;5022941;28;19916;-79
2022/12/08 14:27:45;;;;;;;;;;;6.20;90.30;;;;;;5049007;28;19916;-77
2022/12/08 14:30:12;;;;;;;;;;;6.20;90.30;;;;;;5046578;28;19921;-78
2022/12/08 14:32:38;;;;;;;;;;;6.20;90.30;;;;;;5050526;28;19917;-78
2022/12/08 14:35:07;;;;;;;;;;;6.20;90.30;;;;;;5033250;28;20020;-76
2022/12/08 14:37:33;;;;;;;;;;;6.10;90.30;;;;;;5053968;28;19986;-78
2022/12/08 14:40:00;;;;;;;;;;;6.20;90.30;;;;;;5034384;28;19916;-77
2022/12/08 14:42:26;;;;;;;;;;;6.10;90.30;;;;;;5035987;28;19943;-78
2022/12/08 14:44:56;;;;;;;;;;;6.10;90.30;;;;;;5055263;28;20290;-78
2022/12/08 14:47:21;;;;;;;;;;;6.10;90.30;;;;;;5040507;28;19973;-77
2022/12/08 14:49:47;;;;;;;;;;;6.10;90.30;;;;;;5060033;28;19917;-77
2022/12/08 14:52:12;;;;;;;;;;;6.10;90.30;;;;;;5061893;28;19928;-77
2022/12/08 14:54:38;;;;;;;;;;;6.10;90.30;;;;;;5060766;28;19924;-76
2022/12/08 14:57:03;;;;;;;;;;;6.10;90.30;;;;;;5058546;28;19921;-78
2022/12/08 14:59:29;;;;;;;;;;;6.00;90.40;;;;;;5056924;28;19932;-78
2022/12/08 15:02:21;;;;;;;;;;;6.00;90.30;;;;;;5041328;28;19917;-77
2022/12/08 15:05:07;;;;;;;;;;;6.00;90.30;;;;;;5052775;28;19927;-76
2022/12/08 15:07:43;;;;;;;;;;;6.00;90.30;;;;;;5042558;28;19944;-78
2022/12/08 15:10:14;;;;;;;;;;;5.90;90.30;;;;;;5041580;28;19912;-76
2022/12/08 15:12:40;;;;;;;;;;;5.90;90.30;;;;;;5060751;28;19931;-76
2022/12/08 15:15:08;;;;;;;;;;;5.90;90.30;;;;;;5060871;28;19917;-77
2022/12/08 15:17:36;;;;;;;;;;;5.80;90.30;;;;;;5060282;28;19927;-77
2022/12/08 15:20:02;;;;;;;;;;;5.80;90.30;;;;;;5044692;28;19947;-78
2022/12/08 15:22:28;;;;;;;;;;;5.70;90.30;;;;;;5061533;28;19939;-76
2022/12/08 15:24:54;;;;;;;;;;;5.70;90.30;;;;;;5062870;28;20058;-76
2022/12/08 15:27:20;;;;;;;;;;;5.70;90.30;;;;;;5060016;28;19924;-75
2022/12/08 15:29:45;;;;;;;;;;;5.60;90.30;;;;;;5036227;28;19940;-77
2022/12/08 15:32:11;;;;;;;;;;;5.60;90.30;;;;;;5045474;28;19933;-77
2022/12/08 15:34:46;;;;;;;;;;;5.60;90.40;;;;;;5024742;28;20507;-81
2022/12/08 15:37:21;;;;;;;;;;;5.60;90.40;;;;;;5048083;28;19921;-77
2022/12/08 15:39:47;;;;;;;;;;;5.50;90.40;;;;;;5059056;28;19905;-77
2022/12/08 15:42:12;;;;;;;;;;;5.50;90.40;;;;;;5054432;28;19921;-79
2022/12/08 15:44:38;;;;;;;;;;;5.50;90.40;;;;;;5056333;28;19932;-78
2022/12/08 15:47:03;;;;;;;;;;;5.50;90.40;;;;;;5048667;28;20009;-78
2022/12/08 15:49:29;;;;;;;;;;;5.50;90.40;;;;;;5039313;28;19923;-77
2022/12/08 15:51:54;;;;;;;;;;;5.50;90.40;;;;;;5049834;28;20227;-77
2022/12/08 15:54:20;;;;;;;;;;;5.50;90.40;;;;;;5054719;28;19925;-77
2022/12/08 15:56:47;;;;;;;;;;;5.40;90.40;;;;;;5058462;28;19924;-76
2022/12/08 15:59:15;;;;;;;;;;;5.40;90.40;;;;;;5040116;28;19952;-77
2022/12/08 16:01:45;;;;;;;;;;;5.40;90.40;;;;;;5053830;28;19928;-78
2022/12/08 16:04:14;;;;;;;;;;;5.40;90.40;;;;;;5046987;28;19993;-76
2022/12/08 16:06:41;;;;;;;;;;;5.30;90.40;;;;;;5050644;28;19976;-75
2022/12/08 16:09:23;;;;;;;;;;;5.30;90.40;;;;;;5034508;28;19905;-76
2022/12/08 16:14:32;;;;;;;;;;;5.30;90.50;;;;;;5042520;28;19980;-78
2022/12/08 16:16:58;;;;;;;;;;;5.20;90.50;;;;;;5051343;28;19925;-78
2022/12/08 16:19:23;;;;;;;;;;;5.20;90.50;;;;;;5051723;28;19932;-78
2022/12/08 16:21:49;;;;;;;;;;;5.10;90.50;;;;;;5052624;28;19925;-76
2022/12/08 16:24:14;;;;;;;;;;;5.10;90.50;;;;;;5053542;28;19917;-75
2022/12/08 16:26:40;;;;;;;;;;;5.10;90.50;;;;;;5056641;28;19971;-78
2022/12/08 16:29:05;;;;;;;;;;;5.00;90.40;;;;;;5055361;28;19921;-78
2022/12/08 16:31:31;;;;;;;;;;;5.00;90.40;;;;;;5056035;28;19952;-76
2022/12/08 16:33:56;;;;;;;;;;;4.90;90.40;;;;;;5031973;28;19925;-77
2022/12/08 16:36:22;;;;;;;;;;;4.80;90.40;;;;;;5048402;28;19932;-79
2022/12/08 16:38:47;;;;;;;;;;;4.70;90.30;;;;;;5051755;28;19959;-76
2022/12/08 16:43:59;;;;;;;;;;;4.60;90.40;;;;;;5041682;28;19947;-77
2022/12/08 16:46:27;;;;;;;;;;;4.50;90.40;;;;;;5053246;28;19921;-76
2022/12/08 16:48:52;;;;;;;;;;;4.40;90.40;;;;;;5021983;28;20043;-77
2022/12/08 16:51:18;;;;;;;;;;;4.40;90.50;;;;;;5038846;28;19916;-77
2022/12/08 16:53:44;;;;;;;;;;;4.30;90.50;;;;;;5059358;28;19925;-77
2022/12/08 16:56:19;;;;;;;;;;;4.20;90.50;;;;;;5041575;28;19925;-76
2022/12/08 16:58:44;;;;;;;;;;;4.20;90.50;;;;;;5035761;28;19947;-77
2022/12/08 17:01:11;;;;;;;;;;;4.20;90.60;;;;;;5054916;28;19992;-76
2022/12/08 17:03:36;;;;;;;;;;;4.10;90.50;;;;;;5041128;28;19901;-76
2022/12/08 17:06:06;;;;;;;;;;;4.10;90.60;;;;;;5039036;28;19947;-75
2022/12/08 17:08:32;;;;;;;;;;;4.10;90.60;;;;;;5056235;28;19948;-76
2022/12/08 17:11:06;;;;;;;;;;;4.00;90.50;;;;;;5052471;28;19924;-77
2022/12/08 17:13:32;;;;;;;;;;;4.00;90.60;;;;;;5052250;28;19921;-79
2022/12/08 17:15:57;;;;;;;;;;;3.90;90.60;;;;;;5052926;28;20084;-76
2022/12/08 17:18:23;;;;;;;;;;;3.90;90.60;;;;;;5054480;28;19901;-77
2022/12/08 17:20:48;;;;;;;;;;;3.90;90.60;;;;;;5042676;28;19939;-76
2022/12/08 17:23:14;;;;;;;;;;;3.90;90.70;;;;;;5053315;28;19928;-77
2022/12/08 17:25:39;;;;;;;;;;;3.90;90.70;;;;;;5053389;28;19908;-77
2022/12/08 17:28:05;;;;;;;;;;;3.90;90.70;;;;;;5054116;28;19935;-75
2022/12/08 17:30:30;;;;;;;;;;;3.80;90.70;;;;;;5040400;28;19921;-76
2022/12/08 17:32:56;;;;;;;;;;;3.90;91.10;;;;;;5050730;28;19944;-78
2022/12/08 17:35:21;;;;;;;;;;;3.90;90.70;;;;;;5035524;28;20604;-76
2022/12/08 17:37:47;;;;;;;;;;;3.90;90.80;;;;;;5039847;28;19924;-76
2022/12/08 17:40:12;;;;;;;;;;;3.80;90.70;;;;;;5028568;28;19950;-79
2022/12/08 17:42:38;;;;;;;;;;;3.80;90.80;;;;;;5048355;28;19936;-77
2022/12/08 17:45:05;;;;;;;;;;;3.80;90.80;;;;;;5049155;28;19918;-76
2022/12/08 17:47:30;;;;;;;;;;;3.80;90.80;;;;;;5051563;28;19905;-77
2022/12/08 17:49:56;;;;;;;;;;;3.80;90.80;;;;;;5052934;28;19931;-76
2022/12/08 17:52:22;;;;;;;;;;;3.80;90.80;;;;;;5051012;28;19932;-76
2022/12/08 17:54:47;;;;;;;;;;;3.80;90.80;;;;;;5050788;28;19917;-76
2022/12/08 17:57:13;;;;;;;;;;;3.80;90.80;;;;;;5056234;28;19929;-79
2022/12/08 17:59:38;;;;;;;;;;;3.80;90.80;;;;;;5056194;28;19925;-76
2022/12/08 18:02:04;;;;;;;;;;;3.80;90.80;;;;;;5053003;28;19921;-76
2022/12/08 18:04:29;;;;;;;;;;;3.80;90.80;;;;;;5055881;28;19928;-77
2022/12/08 18:06:57;;;;;;;;;;;3.80;90.80;;;;;;5042517;28;20129;-77
2022/12/08 18:09:22;;;;;;;;;;;3.80;90.80;;;;;;5038784;28;19918;-79
2022/12/08 18:11:48;;;;;;;;;;;3.80;90.80;;;;;;5056850;28;19984;-78
2022/12/08 18:14:14;;;;;;;;;;;3.70;90.80;;;;;;5056593;28;19916;-77
2022/12/08 18:16:40;;;;;;;;;;;3.80;90.80;;;;;;5058052;28;19939;-77
2022/12/08 18:19:06;;;;;;;;;;;3.70;90.90;;;;;;5033951;28;19925;-78
2022/12/08 18:21:31;;;;;;;;;;;3.70;90.80;;;;;;5052124;28;19907;-77
2022/12/08 18:23:57;;;;;;;;;;;3.70;90.80;;;;;;5040670;28;20150;-76
2022/12/08 18:26:22;;;;;;;;;;;3.70;90.80;;;;;;5031725;28;19928;-78
2022/12/08 18:28:48;;;;;;;;;;;3.70;90.80;;;;;;5053950;28;19921;-79
2022/12/08 18:31:14;;;;;;;;;;;3.70;90.80;;;;;;5051520;28;20127;-78
2022/12/08 18:33:40;;;;;;;;;;;3.70;91.20;;;;;;5024280;28;19948;-77
2022/12/08 18:36:09;;;;;;;;;;;3.70;90.90;;;;;;5036230;28;19933;-78
2022/12/08 18:38:35;;;;;;;;;;;3.60;90.80;;;;;;5034497;28;19917;-78
2022/12/08 18:41:06;;;;;;;;;;;3.60;90.80;;;;;;5034159;28;20168;-78
2022/12/08 18:43:32;;;;;;;;;;;3.60;90.80;;;;;;5029821;28;19924;-78
2022/12/08 18:46:04;;;;;;;;;;;3.60;90.80;;;;;;5034380;28;19917;-78
2022/12/08 18:48:30;;;;;;;;;;;3.60;90.80;;;;;;5031364;28;19984;-78
2022/12/08 18:50:55;;;;;;;;;;;3.60;90.80;;;;;;5034355;28;19958;-78
2022/12/08 18:53:21;;;;;;;;;;;3.60;90.80;;;;;;5030363;28;19963;-77
2022/12/08 18:55:49;;;;;;;;;;;3.60;90.90;;;;;;5038171;28;20408;-78
2022/12/08 18:58:15;;;;;;;;;;;3.60;90.90;;;;;;5029396;28;19984;-78
2022/12/08 19:00:49;;;;;;;;;;;3.60;90.90;;;;;;5046026;28;19975;-79
2022/12/08 19:03:15;;;;;;;;;;;3.60;90.90;;;;;;5047279;28;20031;-78
2022/12/08 19:05:40;;;;;;;;;;;3.50;90.90;;;;;;5040148;28;21366;-78
2022/12/08 19:08:06;;;;;;;;;;;3.50;90.90;;;;;;5047369;28;20051;-79
2022/12/08 19:10:33;;;;;;;;;;;3.50;90.90;;;;;;5045665;28;20375;-77
2022/12/08 19:12:59;;;;;;;;;;;3.50;90.90;;;;;;5047388;28;19917;-78
2022/12/08 19:15:24;;;;;;;;;;;3.50;90.90;;;;;;5026417;28;19935;-77
2022/12/08 19:17:50;;;;;;;;;;;3.50;90.90;;;;;;5043064;28;19932;-78
2022/12/08 19:20:15;;;;;;;;;;;3.50;90.90;;;;;;5031322;28;20411;-78
2022/12/08 19:22:41;;;;;;;;;;;3.40;90.80;;;;;;5049439;28;19921;-79
2022/12/08 19:25:06;;;;;;;;;;;3.40;90.90;;;;;;5053226;28;19982;-77
2022/12/08 19:27:34;;;;;;;;;;;3.50;90.90;;;;;;5049105;28;20292;-79
2022/12/08 19:29:59;;;;;;;;;;;3.50;90.90;;;;;;5052953;28;19921;-78
2022/12/08 19:32:25;;;;;;;;;;;3.50;90.90;;;;;;5051704;28;19928;-78